ADDS METAR Data INFO
IDs: Format: Raw Decoded Include TAF

Data at: 1919 UTC 19 Jul 2018

KEOK 191915Z AUTO 17009KT 140V200 10SM OVC017 25/21 A2983 RMK AO2
KEOK 191855Z AUTO 17010G16KT 10SM OVC018 25/21 A2984 RMK AO2
KEOK 191835Z AUTO 17013KT 10SM BKN018 25/21 A2985 RMK AO2
KEOK 191815Z AUTO 19011KT 10SM FEW018 25/21 A2985 RMK AO2
KEOK 191755Z AUTO 19010KT FEW014 25/20 A2985 RMK AO2
KEOK 191735Z AUTO VRB06G12KT 10SM SCT013 24/21 A2987 RMK AO2
KEOK 191715Z AUTO VRB06G12KT 10SM SCT012 22/20 A2987 RMK AO2
KEOK 191655Z AUTO 16009KT 10SM FEW009 SCT013 SCT100 22/20 A2987 RMK AO2 P0002
KEOK 191635Z AUTO 16011G18KT 10SM FEW011 FEW021 SCT029 21/20 A2988 RMK AO2
KEOK 191615Z AUTO 16009G15KT 120V190 3SM BR FEW009 FEW022 BKN030 20/19 A2990 RMK AO2
KEOK 191555Z AUTO 18005G13KT 6SM HZ BKN029 OVC044 21/18 A2990 RMK AO2 P0003
KEOK 191535Z AUTO 14007KT 6SM -RA FEW020 BKN032 OVC055 21/18 A2988 RMK AO2
KEOK 191515Z AUTO 15008KT 10SM BKN030 OVC035 20/18 A2990 RMK AO2
KEOK 191455Z AUTO 15009G14KT 5SM HZ BKN032 OVC038 21/18 A2990 RMK AO2 P0004
KEOK 191435Z AUTO 15010KT 120V180 BKN033 OVC042 21/18 A2991 RMK AO2
KEOK 191415Z AUTO 13009G15KT 10SM SCT031 BKN040 OVC060 22/19 A2991 RMK AO2
KEOK 191355Z AUTO 13009KT 10SM OVC040 20/18 A2991 RMK AO2
KEOK 191335Z AUTO 12009KT 10SM OVC039 19/17 A2991 RMK AO2
KEOK 191315Z AUTO 13009KT 10SM OVC038 19/17 A2992 RMK AO2
KEOK 191255Z AUTO 12009G15KT 10SM OVC039 18/17 A2992 RMK AO2 P0001
KEOK 191235Z AUTO 12010KT 10SM FEW003 FEW034 OVC040 18/17 A2992 RMK AO2
KEOK 191215Z AUTO 12007KT 10SM BKN043 OVC055 19/17 A2994 RMK AO2
KEOK 191155Z AUTO 14007KT 10SM BKN048 OVC060 18/16 A2994 RMK AO2 P0007
KEOK 191135Z AUTO 13008KT 6SM -RA FEW028 FEW039 OVC050 18/16 A2994 RMK AO2
KEOK 191115Z AUTO 17004KT 10SM BKN055 OVC065 19/16 A2995 RMK AO2
KEOK 191055Z AUTO 12008KT 10SM FEW050 SCT065 BKN095 19/16 A2994 RMK AO2
KEOK 191035Z AUTO 12008KT 10SM SCT065 SCT075 OVC095 19/16 A2994 RMK AO2
KEOK 191015Z AUTO 10008KT 10SM FEW008 BKN065 OVC090 19/16 A2995 RMK AO2
KEOK 190955Z AUTO 11007KT 10SM BKN070 OVC090 19/17 A2995 RMK AO2 P0001
KEOK 190935Z AUTO 10007KT 10SM OVC070 19/17 A2995 RMK AO2
KEOK 190915Z AUTO 13008G13KT 6SM -RA FEW006 SCT070 BKN090 19/17 A2996 RMK AO2
KEOK 190855Z AUTO 14005KT 8SM SCT042 BKN055 OVC090 20/16 A2997 RMK AO2
KEOK 190835Z AUTO 15005G11KT 9SM FEW036 BKN055 OVC100 21/16 A2997 RMK AO2
KEOK 190815Z AUTO 13010KT 10SM BKN060 OVC095 21/16 A2997 RMK AO2
KEOK 190755Z AUTO 12010KT FEW065 OVC090 21/17 A2997 RMK AO2
KEOK 190735Z AUTO 12011KT 10SM FEW055 OVC090 21/17 A2996 RMK AO2
KEOK 181635Z AUTO 10008KT 10SM CLR 27/18 A3009 RMK AO2
KEOK 181615Z AUTO 10007G13KT 10SM CLR 26/18 A3009 RMK AO2
KEOK 181555Z AUTO 11007KT 10SM CLR 26/18 A3009 RMK AO2
KEOK 181535Z AUTO 13008KT 10SM CLR 25/18 A3009 RMK AO2
KEOK 181515Z AUTO 10008KT 10SM CLR 25/18 A3009 RMK AO2
KEOK 181455Z AUTO 11010KT 10SM CLR 25/18 A3009 RMK AO2
KEOK 181435Z AUTO 10009KT 10SM CLR 24/18 A3009 RMK AO2
KEOK 181415Z AUTO 11009G14KT 10SM CLR 24/18 A3009 RMK AO2
KEOK 181355Z AUTO 12009KT 10SM CLR 24/18 A3009 RMK AO2
KEOK 181335Z AUTO 13008KT 10SM CLR 23/18 A3009 RMK AO2
KEOK 181315Z AUTO 12008KT 10SM FEW085 22/18 A3010 RMK AO2
KEOK 181255Z AUTO 12010KT 10SM SCT085 22/18 A3010 RMK AO2
KEOK 181235Z AUTO 11010KT 10SM OVC090 21/18 A3009 RMK AO2
KEOK 181215Z AUTO 12007KT 10SM OVC090 21/19 A3008 RMK AO2
KEOK 181155Z AUTO 11008KT 10SM OVC090 21/19 A3008 RMK AO2
KEOK 181135Z AUTO 11007KT 10SM OVC090 20/19 A3008 RMK AO2
KEOK 181115Z AUTO 10008KT 10SM OVC090 20/19 A3008 RMK AO2
KEOK 181055Z AUTO 10007KT 10SM OVC090 20/19 A3007 RMK AO2
KEOK 181035Z AUTO 09009KT 10SM OVC090 21/19 A3007 RMK AO2
KEOK 181015Z AUTO 09006KT 10SM OVC090 21/18 A3007 RMK AO2
KEOK 180955Z AUTO 09005KT 10SM OVC095 21/18 A3007 RMK AO2
KEOK 180935Z AUTO 00000KT 10SM OVC090 21/19 A3007 RMK AO2
KEOK 180915Z AUTO 00000KT 10SM OVC085 21/19 A3007 RMK AO2
KEOK 180855Z AUTO 10SM OVC085 21/19 A3007 RMK AO2
KEOK 180835Z AUTO 10SM OVC085 21/20 A3007 RMK AO2
KEOK 180815Z AUTO 00000KT 10SM OVC090 21/20 A3007 RMK AO2
KEOK 180755Z AUTO 00000KT 10SM OVC085 20/20 A3007 RMK AO2
KEOK 180735Z AUTO 00000KT 10SM OVC090 20/20 A3007 RMK AO2